Etusivu
METAR-TAF:

METAR-TAF

Lentoasemat :

Örebro, Ruotsi

Örebron lentoasema

Leveyspiiri: 59-14N, Pituuspiiri: 015-03E, korkeus merenpinnasta: 57 m

Tämänhetkinen sää

Tämä raportti tehtiin 32 minuuttia sitten, kello 20.20 UTC
Tuuli 5 kn lännestä/lounaasta
Lämpötila 17°C
Kosteus 59%
Ilmanpaine 1018 hPa
Näkyvyys 10 km tai enemmän

METAR: ESOE 262020Z AUTO 25005KT 9999 NCD 17/09 Q1018

Aika: 22:52 (20:52 UTC)

Sääennuste

Tämä raportti tehtiin 3 tuntia ja 22 minuuttia sitten, kello 17.30 UTC
Ennuste voimassa 26. päivästä klo 18 UTC - 26. päivään klo 21 UTC
Tuuli 6 kn lännestä/luoteesta
Näkyvyys 10 km tai enemmän
ei pilviä alle 1500 m:ssä eikä cumulonimbus-pilviä

TAF: ESOE 261730Z 2618/2621 29006KT CAVOK

Säähavainnot ja -ennusteet yli 4000 lentoasemalta (METAR- ja TAF-raportit).

Käytössä olevat sääasemat on merkitty karttaan keltaisilla ja punaisilla pisteillä.

Aseta hiiri pisteen päälle nähdäksesi sääaseman nimen.

Klikkaa sitten nähdäksesi säähavainnot ja -ennusteet.

Kartan vaihtaminen: klikkaa mustalla rastilla varustettuja vihreitä pisteitä, niin voit zoomata sisään; viivalla varustettua vihreää pistettä, niin voit zoomata ulos tai vihreitä nuolia, niin pääset viereisille kartoille.


METAR-TAF: